Huvudsida
METAR-TAF:

METAR-TAF

Flygplatser :

Bizerte, Tunisien

latitud: 37-15N, longitud: 009-48E, höjd: 5 m

Aktuellt väderrapport

Denna rapport gjordes för 28 minuter sedan, klockan 23:00 UTC
Stilla vind
Temperatur 13°C
Fuktighet 94%
Tryck 1009 hPa
Sikt: 8000 m
Spridda moln på en höjd av 2000 ft
Spridda moln på en höjd av 3000 ft

METAR: DTTB 152300Z 00000KT 8000 SCT020 SCT030 13/12 Q1009

Tid: 00:28 (23:28 UTC)

Väderprognos

Denna rapport gjordes för 2 timmar och 28 minuter sedan, klockan 21:00 UTC
Prognos gäller från 15 kl. 22 UTC till 16 kl. 07 UTC
Vind 7 kt från nordväst
Sikt 10 km eller mer
Spridda moln på en höjd av 2000 ft
Brutna moln på en höjd av 3000 ft
Sannolikhet 30% :
Temporärt
från 16 kl. 04 UTC till 16 kl. 07 UTC
Brutna moln på en höjd av 2000 ft
Få moln på en höjd av 2300 ft, Cumulonimbus.
regn

TAF: DTTB 152100Z 1522/1607 32007KT 9999 SCT020 BKN030 PROB30 TEMPO 1604/1607 RA BKN020 FEW023CB

Aktuella väderrapporter och prognoser från 4000 flygplatser (METAR- och TAF-rapporter).

De tillgängliga stationerna syns som gula och röda prickar på kartan.

För musen över prickarna för att se namnen på stationerna.

Klicka sedan för att få väderrapporter och prognoser.

För att ändra kartan: Klicka på de gröna knapparna med ett svart kors på för att zooma in; den gröna knappen med ett streck på för att zooma ut; eller på de gröna pilarna för angränsande kartor.


METAR-TAF: